Airport Name : Bradford Rgnl

Other Name : Bradford Rgnl

ICAO : KBFD

IATA : BFD

FAA : BFD

Latitude : 41.803067

Longitude : -78.640122

Country : United States

Local Date and Time : 4/25/2018 11:58:00 PM

 

TAF (Terminal Aerodrome Forecast)

KBFD 260135Z 2602/2624 30012G21KT P6SM VCSH SCT008 OVC013 FM260600 30013G19KT P6SM OVC007 FM261500 30011G19KT P6SM BKN015 BKN030 FM261700 29012G20KT P6SM SCT040

 

METAR (METeorological Aerodrome Report)

KBFD 260353Z AUTO 29012G16KT 10SM BKN009 OVC014 05/03 A2980 RMK AO2 CIG 007V011 SLP093 T00500028

KBFD 260253Z AUTO 29008KT 10SM OVC006 06/03 A2981 RMK AO2 CIG 003V008 SLP098 60001 T00560033 50009

KBFD 260238Z AUTO 29010KT 9SM OVC004 05/04 A2981 RMK AO2 CIG 003V008 T00500039

KBFD 260202Z AUTO 28013G19KT 10SM BKN008 OVC015 06/04 A2981 RMK AO2 CIG 006V010 T00560039

KBFD 260153Z AUTO 28010KT 10SM BKN010 OVC015 06/04 A2981 RMK AO2 CIG 007V012 SLP099 T00610039

KBFD 260053Z AUTO 30011G21KT 10SM FEW009 OVC014 07/05 A2980 RMK AO2 RAE2358 SLP093 P0001 T00720050

KBFD 260040Z AUTO 30012KT 10SM BKN009 BKN018 OVC050 07/06 A2980 RMK AO2 RAE2358 CIG 007V014 P0001 T00720056

KBFD 260034Z AUTO 31012KT 10SM SCT011 BKN016 OVC050 08/06 A2980 RMK AO2 RAE2358 P0001 T00780056

KBFD 260024Z AUTO 29012KT 10SM SCT011 BKN033 OVC049 08/06 A2979 RMK AO2 RAE2358 P0001 T00780056